createdAt,value
2023-03-10T00:03:04.104Z,5.30
2023-03-10T00:08:05.964Z,4.50
2023-03-10T00:13:07.428Z,5.30
2023-03-10T00:18:08.859Z,5.82
2023-03-10T00:23:10.289Z,5.65
2023-03-10T00:28:11.704Z,5.53
2023-03-10T00:33:13.093Z,5.50
2023-03-10T00:38:14.506Z,5.78
2023-03-10T00:43:15.952Z,5.22
2023-03-10T00:48:17.368Z,4.97
2023-03-10T00:53:18.959Z,5.20
2023-03-10T00:58:20.402Z,5.55
2023-03-10T01:03:22.205Z,5.90
2023-03-10T01:08:24.052Z,5.05
2023-03-10T01:13:25.467Z,5.60
2023-03-10T01:18:26.913Z,5.60
2023-03-10T01:23:28.447Z,5.57
2023-03-10T01:28:29.835Z,5.90
2023-03-10T01:33:31.238Z,6.30
2023-03-10T01:38:32.681Z,5.68
2023-03-10T01:43:37.871Z,5.70
2023-03-10T01:48:39.382Z,5.53
2023-03-10T01:53:40.936Z,6.03
2023-03-10T01:58:44.483Z,5.35
2023-03-10T02:03:54.362Z,5.57
2023-03-10T02:08:57.945Z,5.22
2023-03-10T02:14:01.274Z,5.13
2023-03-10T02:19:04.453Z,4.93
2023-03-10T02:24:31.624Z,5.72
2023-03-10T02:29:52.501Z,5.47
2023-03-10T02:34:59.868Z,5.18
2023-03-10T02:40:01.444Z,5.05
2023-03-10T02:45:03.774Z,5.05
2023-03-10T02:50:08.455Z,5.60
2023-03-10T02:55:14.711Z,5.35
2023-03-10T03:00:16.304Z,5.10
2023-03-10T03:05:17.938Z,5.10
2023-03-10T03:10:19.778Z,5.60
2023-03-10T03:15:21.196Z,5.32
2023-03-10T03:20:22.653Z,5.05
2023-03-10T03:25:24.918Z,4.97
2023-03-10T03:30:27.015Z,4.45
2023-03-10T03:35:30.520Z,5.15
2023-03-10T03:40:33.662Z,5.22
2023-03-10T03:45:35.158Z,4.60
2023-03-10T03:50:36.614Z,4.93
2023-03-10T03:55:38.053Z,5.05
2023-03-10T04:00:40.192Z,5.60
2023-03-10T04:05:41.848Z,5.20
2023-03-10T04:10:43.311Z,5.25
2023-03-10T04:15:44.756Z,5.85
2023-03-10T04:20:46.185Z,5.78
2023-03-10T04:25:47.641Z,5.70
2023-03-10T04:30:49.068Z,5.90
2023-03-10T04:35:51.636Z,6.40
2023-03-10T04:40:54.131Z,6.60
2023-03-10T04:45:55.599Z,6.85
2023-03-10T04:50:57.867Z,6.78
2023-03-10T04:55:59.978Z,6.63
2023-03-10T05:01:03.527Z,7.25
2023-03-10T05:06:05.534Z,5.90
2023-03-10T05:11:07.375Z,5.65
2023-03-10T05:16:13.495Z,5.47
2023-03-10T05:21:15.044Z,5.82
2023-03-10T05:26:16.933Z,5.20
2023-03-10T05:31:25.811Z,4.70
2023-03-10T05:36:27.335Z,4.80
2023-03-10T05:41:28.797Z,4.15
2023-03-10T05:46:30.537Z,4.68
2023-03-10T05:51:31.962Z,4.85
2023-03-10T05:56:33.641Z,3.75
2023-03-10T06:01:35.193Z,4.35
2023-03-10T06:06:36.914Z,4.70
2023-03-10T06:11:38.465Z,4.30
2023-03-10T06:16:40.000Z,4.40
2023-03-10T06:21:41.434Z,4.63
2023-03-10T06:26:42.857Z,4.55
2023-03-10T06:31:44.366Z,4.63
2023-03-10T06:36:45.809Z,4.65
2023-03-10T06:41:47.298Z,4.68
2023-03-10T06:46:48.677Z,4.85
2023-03-10T06:51:50.070Z,5.00
2023-03-10T06:56:51.499Z,5.03
2023-03-10T07:01:52.908Z,5.25
2023-03-10T07:06:54.574Z,5.28
2023-03-10T07:11:55.989Z,5.40
2023-03-10T07:16:57.751Z,5.22
2023-03-10T07:21:59.248Z,5.32
2023-03-10T07:27:01.159Z,5.70
2023-03-10T07:32:02.989Z,5.97
2023-03-10T07:37:04.450Z,6.50
2023-03-10T07:42:06.125Z,6.07
2023-03-10T07:47:07.571Z,6.38
2023-03-10T07:52:09.351Z,6.15
2023-03-10T07:57:11.669Z,6.72
2023-03-10T08:02:13.696Z,6.97
2023-03-10T08:07:15.148Z,7.80
2023-03-10T08:12:17.120Z,8.25
2023-03-10T08:17:19.781Z,8.75
2023-03-10T08:22:22.665Z,9.90
2023-03-10T08:27:24.143Z,9.00
2023-03-10T08:32:25.637Z,9.20
2023-03-10T08:37:27.112Z,10.07
2023-03-10T08:42:28.605Z,9.00
2023-03-10T08:47:32.289Z,8.80
2023-03-10T08:52:33.918Z,10.07
2023-03-10T08:57:35.508Z,9.95
2023-03-10T09:02:36.909Z,8.65
2023-03-10T09:07:38.370Z,8.98
2023-03-10T09:12:39.808Z,8.73
2023-03-10T09:17:41.246Z,8.55
2023-03-10T09:22:42.718Z,7.65
2023-03-10T09:27:46.598Z,6.30
2023-03-10T09:32:48.264Z,7.10
2023-03-10T09:37:49.737Z,6.45
2023-03-10T09:43:01.757Z,6.55
2023-03-10T09:48:26.201Z,7.70
2023-03-10T09:53:37.205Z,7.35
2023-03-10T09:58:41.100Z,7.32
2023-03-10T10:04:05.062Z,6.63
2023-03-10T10:09:18.861Z,7.38
2023-03-10T10:14:29.597Z,6.75
2023-03-10T10:19:33.729Z,6.72
2023-03-10T10:24:36.390Z,6.40
2023-03-10T10:29:38.695Z,6.90
2023-03-10T10:34:41.676Z,7.28
2023-03-10T10:39:43.273Z,7.40
2023-03-10T10:44:45.150Z,8.52
2023-03-10T10:49:46.608Z,7.63
2023-03-10T10:54:59.130Z,7.80
2023-03-10T11:00:14.230Z,7.75
2023-03-10T11:05:18.058Z,8.52
2023-03-10T11:10:22.005Z,8.88
2023-03-10T11:15:30.001Z,8.35
2023-03-10T11:20:37.231Z,8.02
2023-03-10T11:25:42.652Z,8.10
2023-03-10T11:30:49.505Z,8.23
2023-03-10T11:35:52.028Z,8.23
2023-03-10T11:40:58.539Z,8.85
2023-03-10T11:46:02.299Z,9.07
2023-03-10T11:51:05.019Z,8.48
2023-03-10T11:56:08.210Z,8.75
2023-03-10T12:01:12.051Z,8.30
2023-03-10T12:06:17.121Z,8.18
2023-03-10T12:11:20.858Z,8.73
2023-03-10T12:16:24.123Z,8.85
2023-03-10T12:21:29.634Z,9.10
2023-03-10T12:26:40.965Z,10.00
2023-03-10T12:31:44.561Z,9.25
2023-03-10T12:36:47.605Z,9.23
2023-03-10T12:41:50.673Z,10.13
2023-03-10T12:47:01.589Z,10.10
2023-03-10T12:52:15.210Z,10.70
2023-03-10T12:57:22.803Z,10.60
2023-03-10T13:02:28.362Z,10.98
2023-03-10T13:07:30.581Z,9.50
2023-03-10T13:12:45.944Z,9.85
2023-03-10T13:17:47.398Z,6.38
2023-03-10T13:22:56.026Z,6.15
2023-03-10T13:27:57.670Z,5.95
2023-03-10T13:33:00.173Z,5.45
2023-03-10T13:38:10.667Z,6.35
2023-03-10T13:43:34.033Z,6.22
2023-03-10T13:48:35.611Z,5.68
2023-03-10T13:53:37.221Z,3.80
2023-03-10T13:58:38.697Z,3.65
2023-03-10T14:03:48.514Z,3.55
2023-03-10T14:08:50.436Z,4.45
2023-03-10T14:13:51.887Z,3.20
2023-03-10T14:18:53.336Z,2.95
2023-03-10T14:23:56.965Z,3.00
2023-03-10T14:29:00.303Z,3.25
2023-03-10T14:34:01.672Z,4.40
2023-03-10T14:39:03.088Z,3.72
2023-03-10T14:44:05.361Z,3.20
2023-03-10T14:49:08.324Z,3.50
2023-03-10T14:54:16.418Z,3.50
2023-03-10T14:59:18.269Z,3.08
2023-03-10T15:04:19.810Z,3.35
2023-03-10T15:09:22.766Z,4.20
2023-03-10T15:14:24.363Z,4.15
2023-03-10T15:19:27.064Z,3.30
2023-03-10T15:24:29.013Z,3.35
2023-03-10T15:29:30.699Z,3.38
2023-03-10T15:34:32.300Z,2.22
2023-03-10T15:39:36.886Z,1.70
2023-03-10T15:44:38.822Z,3.40
2023-03-10T15:49:40.214Z,2.80
2023-03-10T15:54:41.626Z,3.30
2023-03-10T15:59:43.263Z,1.00
2023-03-10T16:04:44.855Z,1.00
2023-03-10T16:09:47.432Z,0.82
2023-03-10T16:14:49.120Z,1.30
2023-03-10T16:19:51.078Z,1.85
2023-03-10T16:24:52.678Z,1.77
2023-03-10T16:29:54.083Z,1.30
2023-03-10T16:34:55.499Z,1.00
2023-03-10T16:39:57.633Z,1.20
2023-03-10T16:44:59.124Z,1.42
2023-03-10T16:50:00.581Z,1.17
2023-03-10T16:55:05.129Z,1.75
2023-03-10T17:00:09.331Z,1.52
2023-03-10T17:05:10.949Z,1.20
2023-03-10T17:10:12.375Z,1.10
2023-03-10T17:15:13.893Z,1.00
2023-03-10T17:20:15.526Z,1.40
2023-03-10T17:25:17.210Z,1.05
2023-03-10T17:30:20.075Z,1.48
2023-03-10T17:35:21.552Z,1.20
2023-03-10T17:40:24.040Z,1.23
2023-03-10T17:45:25.427Z,0.90
2023-03-10T17:50:26.847Z,1.17
2023-03-10T17:55:28.272Z,1.70
2023-03-10T18:00:29.717Z,1.35
2023-03-10T18:05:31.233Z,1.13
2023-03-10T18:10:35.433Z,1.30
2023-03-10T18:15:37.599Z,1.20
2023-03-10T18:20:40.408Z,1.70
2023-03-10T18:25:44.875Z,1.52
2023-03-10T18:30:47.918Z,1.60
2023-03-10T18:35:49.344Z,1.17
2023-03-10T18:40:56.128Z,0.80
2023-03-10T18:45:57.981Z,1.63
2023-03-10T18:50:59.988Z,1.10
2023-03-10T18:56:01.380Z,1.63
2023-03-10T19:01:02.809Z,1.67
2023-03-10T19:06:04.554Z,1.63
2023-03-10T19:11:06.860Z,1.70
2023-03-10T19:16:09.493Z,1.42
2023-03-10T19:21:13.007Z,1.83
2023-03-10T19:26:15.476Z,2.63
2023-03-10T19:31:17.032Z,1.85
2023-03-10T19:36:18.652Z,1.60
2023-03-10T19:41:20.531Z,1.52
2023-03-10T19:46:22.029Z,1.17
2023-03-10T19:51:25.100Z,1.20
2023-03-10T19:56:26.900Z,1.30
2023-03-10T20:01:28.870Z,1.70
2023-03-10T20:06:31.558Z,1.33
2023-03-10T20:11:32.979Z,1.98
2023-03-10T20:16:34.665Z,1.50
2023-03-10T20:21:36.228Z,1.80
2023-03-10T20:26:37.907Z,1.45
2023-03-10T20:31:39.436Z,1.38
2023-03-10T20:36:40.901Z,1.20
2023-03-10T20:41:44.926Z,1.70
2023-03-10T20:46:46.583Z,1.20
2023-03-10T20:51:47.996Z,1.70
2023-03-10T20:56:49.450Z,1.10
2023-03-10T21:01:50.864Z,1.65
2023-03-10T21:06:52.369Z,1.45
2023-03-10T21:11:53.847Z,1.85
2023-03-10T21:16:55.392Z,1.40
2023-03-10T21:21:56.849Z,1.60
2023-03-10T21:26:58.370Z,1.95
2023-03-10T21:31:59.796Z,2.60
2023-03-10T21:37:01.256Z,1.70
2023-03-10T21:42:02.787Z,1.80
2023-03-10T21:47:04.407Z,2.20
2023-03-10T21:52:06.089Z,1.83
2023-03-10T21:57:07.503Z,1.70
2023-03-10T22:02:20.582Z,1.52
2023-03-10T22:07:22.229Z,1.77
2023-03-10T22:12:23.700Z,1.42
2023-03-10T22:17:25.742Z,2.13
2023-03-10T22:22:27.220Z,1.40
2023-03-10T22:27:28.625Z,1.60
2023-03-10T22:32:30.073Z,1.50
2023-03-10T22:37:31.544Z,1.35
2023-03-10T22:42:32.973Z,1.20
2023-03-10T22:47:34.407Z,1.30
2023-03-10T22:52:35.859Z,1.50
2023-03-10T22:57:37.256Z,1.25
2023-03-10T23:02:38.837Z,1.13
2023-03-10T23:07:40.339Z,1.17
2023-03-10T23:12:41.806Z,1.40
2023-03-10T23:17:43.547Z,1.27
2023-03-10T23:22:45.865Z,1.42
2023-03-10T23:27:47.369Z,1.50
2023-03-10T23:32:50.109Z,1.90
2023-03-10T23:37:51.653Z,1.40
2023-03-10T23:42:53.554Z,1.25
2023-03-10T23:47:55.612Z,1.20
2023-03-10T23:52:57.010Z,1.00
2023-03-10T23:57:58.515Z,1.42
